sensor_id;sensor_type;location;lat;lon;timestamp;P1;durP1;ratioP1;P2;durP2;ratioP2
16760;SDS011;8498;52.516;13.790;2023-04-01T00:01:38;4.20;;;2.20;;
16760;SDS011;8498;52.516;13.790;2023-04-01T00:07:01;4.03;;;3.20;;
16760;SDS011;8498;52.516;13.790;2023-04-01T00:12:24;5.80;;;2.60;;
16760;SDS011;8498;52.516;13.790;2023-04-01T00:17:47;2.20;;;2.00;;
16760;SDS011;8498;52.516;13.790;2023-04-01T00:23:10;2.37;;;1.97;;
16760;SDS011;8498;52.516;13.790;2023-04-01T00:28:33;5.33;;;2.13;;
16760;SDS011;8498;52.516;13.790;2023-04-01T00:33:56;2.90;;;2.37;;
16760;SDS011;8498;52.516;13.790;2023-04-01T00:39:21;4.87;;;2.33;;
16760;SDS011;8498;52.516;13.790;2023-04-01T00:44:50;3.77;;;2.70;;
16760;SDS011;8498;52.516;13.790;2023-04-01T00:50:13;4.03;;;2.30;;
16760;SDS011;8498;52.516;13.790;2023-04-01T00:55:37;5.00;;;2.60;;
16760;SDS011;8498;52.516;13.790;2023-04-01T01:01:03;6.33;;;2.77;;
16760;SDS011;8498;52.516;13.790;2023-04-01T01:06:37;3.87;;;2.37;;
16760;SDS011;8498;52.516;13.790;2023-04-01T01:12:16;7.37;;;3.13;;
16760;SDS011;8498;52.516;13.790;2023-04-01T01:34:22;6.80;;;3.47;;
16760;SDS011;8498;52.516;13.790;2023-04-01T01:40:00;4.27;;;3.07;;
16760;SDS011;8498;52.516;13.790;2023-04-01T01:45:26;3.57;;;2.83;;
16760;SDS011;8498;52.516;13.790;2023-04-01T01:50:51;5.03;;;3.07;;
16760;SDS011;8498;52.516;13.790;2023-04-01T01:56:15;8.47;;;3.17;;
16760;SDS011;8498;52.516;13.790;2023-04-01T02:01:45;7.17;;;3.83;;
16760;SDS011;8498;52.516;13.790;2023-04-01T02:07:22;4.67;;;3.57;;
16760;SDS011;8498;52.516;13.790;2023-04-01T02:12:50;7.07;;;4.03;;
16760;SDS011;8498;52.516;13.790;2023-04-01T02:18:15;7.37;;;3.77;;
16760;SDS011;8498;52.516;13.790;2023-04-01T02:23:40;5.67;;;3.73;;
16760;SDS011;8498;52.516;13.790;2023-04-01T02:29:04;5.50;;;3.80;;
16760;SDS011;8498;52.516;13.790;2023-04-01T02:34:29;7.50;;;4.00;;
16760;SDS011;8498;52.516;13.790;2023-04-01T02:39:51;6.67;;;4.17;;
16760;SDS011;8498;52.516;13.790;2023-04-01T02:45:14;9.20;;;4.03;;
16760;SDS011;8498;52.516;13.790;2023-04-01T02:50:37;9.17;;;4.53;;
16760;SDS011;8498;52.516;13.790;2023-04-01T02:55:59;9.37;;;4.53;;
16760;SDS011;8498;52.516;13.790;2023-04-01T03:01:22;10.87;;;4.87;;
16760;SDS011;8498;52.516;13.790;2023-04-01T03:06:45;8.70;;;4.47;;
16760;SDS011;8498;52.516;13.790;2023-04-01T03:12:07;9.73;;;4.70;;
16760;SDS011;8498;52.516;13.790;2023-04-01T03:17:40;11.37;;;4.73;;
16760;SDS011;8498;52.516;13.790;2023-04-01T03:23:04;8.50;;;4.87;;
16760;SDS011;8498;52.516;13.790;2023-04-01T03:28:27;6.50;;;4.60;;
16760;SDS011;8498;52.516;13.790;2023-04-01T03:33:49;10.57;;;5.63;;
16760;SDS011;8498;52.516;13.790;2023-04-01T03:39:12;9.77;;;5.23;;
16760;SDS011;8498;52.516;13.790;2023-04-01T03:44:36;11.77;;;5.80;;
16760;SDS011;8498;52.516;13.790;2023-04-01T03:49:59;12.47;;;6.10;;
16760;SDS011;8498;52.516;13.790;2023-04-01T03:55:22;12.73;;;6.27;;
16760;SDS011;8498;52.516;13.790;2023-04-01T04:00:45;9.80;;;5.53;;
16760;SDS011;8498;52.516;13.790;2023-04-01T04:06:12;12.37;;;5.97;;
16760;SDS011;8498;52.516;13.790;2023-04-01T04:11:35;13.37;;;6.17;;
16760;SDS011;8498;52.516;13.790;2023-04-01T04:16:58;16.57;;;5.97;;
16760;SDS011;8498;52.516;13.790;2023-04-01T04:22:20;13.27;;;6.20;;
16760;SDS011;8498;52.516;13.790;2023-04-01T04:27:43;13.33;;;6.23;;
16760;SDS011;8498;52.516;13.790;2023-04-01T04:33:07;14.83;;;5.97;;
16760;SDS011;8498;52.516;13.790;2023-04-01T04:38:30;12.37;;;6.90;;
16760;SDS011;8498;52.516;13.790;2023-04-01T04:43:54;12.30;;;5.70;;
16760;SDS011;8498;52.516;13.790;2023-04-01T04:49:19;12.37;;;6.93;;
16760;SDS011;8498;52.516;13.790;2023-04-01T04:54:41;13.93;;;6.93;;
16760;SDS011;8498;52.516;13.790;2023-04-01T05:00:07;15.37;;;6.70;;
16760;SDS011;8498;52.516;13.790;2023-04-01T05:05:51;13.97;;;6.60;;
16760;SDS011;8498;52.516;13.790;2023-04-01T05:11:16;15.33;;;6.70;;
16760;SDS011;8498;52.516;13.790;2023-04-01T05:16:40;15.07;;;6.67;;
16760;SDS011;8498;52.516;13.790;2023-04-01T05:22:03;15.13;;;6.90;;
16760;SDS011;8498;52.516;13.790;2023-04-01T05:27:26;15.90;;;6.37;;
16760;SDS011;8498;52.516;13.790;2023-04-01T05:32:48;16.20;;;6.90;;
16760;SDS011;8498;52.516;13.790;2023-04-01T05:38:11;18.93;;;7.83;;
16760;SDS011;8498;52.516;13.790;2023-04-01T05:43:37;16.87;;;7.57;;
16760;SDS011;8498;52.516;13.790;2023-04-01T05:49:21;17.97;;;7.57;;
16760;SDS011;8498;52.516;13.790;2023-04-01T05:54:44;17.80;;;7.90;;
16760;SDS011;8498;52.516;13.790;2023-04-01T06:00:07;15.60;;;7.53;;
16760;SDS011;8498;52.516;13.790;2023-04-01T06:05:40;18.43;;;8.47;;
16760;SDS011;8498;52.516;13.790;2023-04-01T06:22:24;13.57;;;6.23;;
16760;SDS011;8498;52.516;13.790;2023-04-01T06:33:31;13.77;;;6.60;;
16760;SDS011;8498;52.516;13.790;2023-04-01T06:50:38;17.03;;;6.67;;
16760;SDS011;8498;52.516;13.790;2023-04-01T06:56:41;16.07;;;6.33;;
16760;SDS011;8498;52.516;13.790;2023-04-01T07:13:43;16.40;;;6.57;;
16760;SDS011;8498;52.516;13.790;2023-04-01T07:25:15;19.60;;;7.07;;
16760;SDS011;8498;52.516;13.790;2023-04-01T07:31:28;13.17;;;6.07;;
16760;SDS011;8498;52.516;13.790;2023-04-01T07:53:27;9.23;;;5.47;;
16760;SDS011;8498;52.516;13.790;2023-04-01T07:59:11;12.40;;;5.83;;
16760;SDS011;8498;52.516;13.790;2023-04-01T08:16:30;8.00;;;4.10;;
16760;SDS011;8498;52.516;13.790;2023-04-01T08:22:28;6.00;;;3.63;;
16760;SDS011;8498;52.516;13.790;2023-04-01T08:28:00;7.13;;;3.93;;
16760;SDS011;8498;52.516;13.790;2023-04-01T08:33:28;6.33;;;4.30;;
16760;SDS011;8498;52.516;13.790;2023-04-01T08:39:23;7.30;;;4.40;;
16760;SDS011;8498;52.516;13.790;2023-04-01T08:56:47;7.27;;;4.70;;
16760;SDS011;8498;52.516;13.790;2023-04-01T09:03:07;10.80;;;5.40;;
16760;SDS011;8498;52.516;13.790;2023-04-01T09:08:28;10.33;;;5.40;;
16760;SDS011;8498;52.516;13.790;2023-04-01T09:20:18;7.00;;;4.80;;
16760;SDS011;8498;52.516;13.790;2023-04-01T09:31:50;6.83;;;4.80;;
16760;SDS011;8498;52.516;13.790;2023-04-01T09:43:28;5.23;;;4.37;;
16760;SDS011;8498;52.516;13.790;2023-04-01T11:46:14;3.10;;;2.80;;
16760;SDS011;8498;52.516;13.790;2023-04-01T11:51:46;4.70;;;2.90;;
16760;SDS011;8498;52.516;13.790;2023-04-01T12:03:27;4.90;;;2.87;;
16760;SDS011;8498;52.516;13.790;2023-04-01T12:09:17;3.07;;;2.77;;
16760;SDS011;8498;52.516;13.790;2023-04-01T12:26:16;3.20;;;2.87;;
16760;SDS011;8498;52.516;13.790;2023-04-01T12:37:45;4.77;;;3.53;;
16760;SDS011;8498;52.516;13.790;2023-04-01T12:54:48;5.40;;;3.57;;
16760;SDS011;8498;52.516;13.790;2023-04-01T13:06:41;5.23;;;3.50;;
16760;SDS011;8498;52.516;13.790;2023-04-01T13:12:48;3.90;;;2.77;;
16760;SDS011;8498;52.516;13.790;2023-04-01T13:18:25;3.47;;;2.30;;
16760;SDS011;8498;52.516;13.790;2023-04-01T13:41:01;3.17;;;2.10;;
16760;SDS011;8498;52.516;13.790;2023-04-01T14:59:48;3.93;;;2.30;;
16760;SDS011;8498;52.516;13.790;2023-04-01T15:17:23;1.97;;;1.77;;
16760;SDS011;8498;52.516;13.790;2023-04-01T15:34:37;3.33;;;2.10;;
16760;SDS011;8498;52.516;13.790;2023-04-01T15:45:58;2.60;;;2.40;;
16760;SDS011;8498;52.516;13.790;2023-04-01T16:20:14;3.03;;;2.73;;
16760;SDS011;8498;52.516;13.790;2023-04-01T16:26:01;4.70;;;2.67;;
16760;SDS011;8498;52.516;13.790;2023-04-01T16:31:35;5.93;;;3.63;;
16760;SDS011;8498;52.516;13.790;2023-04-01T16:37:29;5.67;;;3.10;;
16760;SDS011;8498;52.516;13.790;2023-04-01T16:48:59;3.83;;;3.27;;
16760;SDS011;8498;52.516;13.790;2023-04-01T17:23:14;3.70;;;2.50;;
16760;SDS011;8498;52.516;13.790;2023-04-01T17:40:57;3.40;;;3.10;;
16760;SDS011;8498;52.516;13.790;2023-04-01T17:52:46;3.87;;;3.30;;
16760;SDS011;8498;52.516;13.790;2023-04-01T17:58:29;3.90;;;2.97;;
16760;SDS011;8498;52.516;13.790;2023-04-01T18:04:18;3.97;;;3.00;;
16760;SDS011;8498;52.516;13.790;2023-04-01T18:10:04;3.77;;;3.47;;
16760;SDS011;8498;52.516;13.790;2023-04-01T18:21:52;7.03;;;3.30;;
16760;SDS011;8498;52.516;13.790;2023-04-01T18:27:21;4.93;;;3.30;;
16760;SDS011;8498;52.516;13.790;2023-04-01T18:32:54;4.17;;;3.63;;
16760;SDS011;8498;52.516;13.790;2023-04-01T18:50:02;7.47;;;4.03;;
16760;SDS011;8498;52.516;13.790;2023-04-01T18:55:46;7.87;;;4.13;;
16760;SDS011;8498;52.516;13.790;2023-04-01T19:01:26;6.20;;;4.00;;
16760;SDS011;8498;52.516;13.790;2023-04-01T19:07:00;6.30;;;4.07;;
16760;SDS011;8498;52.516;13.790;2023-04-01T19:24:05;8.80;;;4.53;;
16760;SDS011;8498;52.516;13.790;2023-04-01T19:53:01;9.47;;;5.37;;
16760;SDS011;8498;52.516;13.790;2023-04-01T20:03:48;14.40;;;6.20;;
16760;SDS011;8498;52.516;13.790;2023-04-01T20:09:32;15.50;;;5.40;;
16760;SDS011;8498;52.516;13.790;2023-04-01T20:14:57;13.00;;;5.83;;
16760;SDS011;8498;52.516;13.790;2023-04-01T20:20:27;11.37;;;5.47;;
16760;SDS011;8498;52.516;13.790;2023-04-01T20:25:59;9.80;;;5.63;;
16760;SDS011;8498;52.516;13.790;2023-04-01T20:31:29;9.40;;;5.67;;
16760;SDS011;8498;52.516;13.790;2023-04-01T20:53:58;10.20;;;5.70;;
16760;SDS011;8498;52.516;13.790;2023-04-01T21:05:35;9.10;;;5.60;;
16760;SDS011;8498;52.516;13.790;2023-04-01T21:11:30;9.97;;;5.03;;
16760;SDS011;8498;52.516;13.790;2023-04-01T21:17:21;12.10;;;5.57;;
16760;SDS011;8498;52.516;13.790;2023-04-01T21:23:20;11.67;;;4.87;;
16760;SDS011;8498;52.516;13.790;2023-04-01T22:14:24;6.23;;;3.57;;
16760;SDS011;8498;52.516;13.790;2023-04-01T22:25:17;8.77;;;3.67;;
16760;SDS011;8498;52.516;13.790;2023-04-01T22:30:51;5.37;;;3.33;;
16760;SDS011;8498;52.516;13.790;2023-04-01T22:47:35;6.60;;;3.37;;
16760;SDS011;8498;52.516;13.790;2023-04-01T23:04:47;5.57;;;3.63;;
16760;SDS011;8498;52.516;13.790;2023-04-01T23:10:17;6.93;;;4.20;;
16760;SDS011;8498;52.516;13.790;2023-04-01T23:15:43;5.53;;;3.50;;
16760;SDS011;8498;52.516;13.790;2023-04-01T23:21:15;9.83;;;4.00;;
16760;SDS011;8498;52.516;13.790;2023-04-01T23:26:48;8.13;;;3.40;;
16760;SDS011;8498;52.516;13.790;2023-04-01T23:32:17;4.90;;;3.50;;
16760;SDS011;8498;52.516;13.790;2023-04-01T23:37:41;8.90;;;3.67;;
16760;SDS011;8498;52.516;13.790;2023-04-01T23:43:12;6.77;;;3.20;;
16760;SDS011;8498;52.516;13.790;2023-04-01T23:54:04;6.37;;;3.47;;
16760;SDS011;8498;52.516;13.790;2023-04-01T23:59:35;4.40;;;3.30;;
